Time;durP1;ratioP1;P1;durP2;ratioP2;P2;SDS_P1;SDS_P2;PMS_P1;PMS_P2;Temp;Humidity;BMP_temperature;BMP_pressure;BME280_temperature;BME280_humidity;BME280_pressure;Samples;Min_cycle;Max_cycle;Signal;HPM_P1;HPM_P2
2023/06/15 00:01:29;;;;;;;0.40;0.30;;;;;;;19.67;100.00;95227.56;5070918;28;20471;-65
2023/06/15 00:03:57;;;;;;;1.63;0.40;;;;;;;19.83;100.00;95236.63;5070811;28;20477;-65
2023/06/15 00:06:27;;;;;;;0.77;0.30;;;;;;;19.50;100.00;95234.66;5070174;28;20442;-65
2023/06/15 00:08:56;;;;;;;0.40;0.30;;;;;;;19.41;100.00;95241.97;5063524;28;20473;-65
2023/06/15 00:11:24;;;;;;;0.40;0.33;;;;;;;19.49;100.00;95229.59;5067068;28;20772;-65
2023/06/15 00:13:53;;;;;;;0.40;0.30;;;;;;;19.54;100.00;95229.41;5071007;28;20445;-66
2023/06/15 00:16:23;;;;;;;0.50;0.40;;;;;;;19.56;100.00;95224.47;5070648;28;20985;-66
2023/06/15 00:18:54;;;;;;;0.50;0.50;;;;;;;19.69;100.00;95219.97;5092345;28;20505;-66
2023/06/15 00:21:23;;;;;;;0.40;0.20;;;;;;;19.74;100.00;95223.25;5073722;28;20526;-66
2023/06/15 00:23:52;;;;;;;2.43;0.30;;;;;;;19.88;100.00;95221.09;5066525;28;20441;-65
2023/06/15 00:26:20;;;;;;;0.40;0.30;;;;;;;19.69;100.00;95218.06;5074601;28;20503;-64
2023/06/15 00:28:48;;;;;;;0.40;0.30;;;;;;;19.82;100.00;95218.91;5074453;28;20445;-65
2023/06/15 00:31:17;;;;;;;0.50;0.30;;;;;;;19.96;100.00;95220.19;5074782;28;20469;-65
2023/06/15 00:33:46;;;;;;;0.63;0.63;;;;;;;20.05;100.00;95220.13;5074505;28;20434;-65
2023/06/15 00:36:15;;;;;;;0.40;0.40;;;;;;;20.00;100.00;95218.44;5048048;28;20442;-65
2023/06/15 00:38:43;;;;;;;0.50;0.40;;;;;;;19.98;100.00;95206.44;5074032;28;20491;-65
2023/06/15 00:41:12;;;;;;;0.50;0.30;;;;;;;19.97;100.00;95205.63;5074774;28;20513;-64
2023/06/15 00:43:41;;;;;;;0.80;0.80;;;;;;;19.82;100.00;95203.56;5074066;28;20847;-64
2023/06/15 00:46:10;;;;;;;0.60;0.40;;;;;;;19.99;100.00;95208.78;5073959;28;20495;-64
2023/06/15 00:48:39;;;;;;;0.40;0.30;;;;;;;20.10;100.00;95204.56;5073854;28;20438;-64
2023/06/15 00:51:10;;;;;;;1.43;0.40;;;;;;;20.05;100.00;95210.16;5074065;28;20518;-64
2023/06/15 00:53:38;;;;;;;0.50;0.30;;;;;;;19.45;100.00;95140.00;5074218;28;20438;-64
2023/06/15 00:56:07;;;;;;;0.40;0.30;;;;;;;19.76;100.00;95209.47;5073491;28;20446;-64
2023/06/15 00:58:37;;;;;;;0.50;0.40;;;;;;;19.95;100.00;95202.50;5073600;28;20550;-64
2023/06/15 01:01:05;;;;;;;0.50;0.30;;;;;;;20.07;100.00;95202.53;5073591;28;20886;-64
2023/06/15 01:03:35;;;;;;;0.60;0.50;;;;;;;19.98;100.00;95211.81;5073739;28;20441;-64
2023/06/15 01:06:12;;;;;;;0.40;0.30;;;;;;;19.86;100.00;95207.16;5074092;28;20441;-64
2023/06/15 01:08:45;;;;;;;0.50;0.30;;;;;;;19.78;100.00;95197.28;5074026;28;20843;-64
2023/06/15 01:11:15;;;;;;;0.43;0.33;;;;;;;19.82;100.00;95192.00;5073336;28;20429;-63
2023/06/15 01:13:45;;;;;;;0.40;0.40;;;;;;;19.58;100.00;95198.84;5073628;28;20507;-64
2023/06/15 01:16:18;;;;;;;0.40;0.30;;;;;;;19.69;100.00;95193.84;5073360;28;20457;-63
2023/06/15 01:18:50;;;;;;;0.40;0.30;;;;;;;19.68;100.00;95189.63;5073843;28;20528;-63
2023/06/15 01:21:19;;;;;;;0.50;0.30;;;;;;;19.85;100.00;95180.59;5073519;28;20446;-63
2023/06/15 01:24:03;;;;;;;0.60;0.50;;;;;;;19.65;100.00;95187.56;5073476;28;20453;-64
2023/06/15 01:26:34;;;;;;;0.40;0.30;;;;;;;19.51;100.00;95206.66;5073395;28;20438;-64
2023/06/15 01:29:03;;;;;;;0.40;0.30;;;;;;;19.63;100.00;95195.19;5073362;28;20449;-64
2023/06/15 01:31:33;;;;;;;0.40;0.30;;;;;;;19.80;100.00;95194.25;5073286;28;20441;-64
2023/06/15 01:34:01;;;;;;;0.53;0.50;;;;;;;19.86;100.00;95180.25;5073035;28;20499;-64
2023/06/15 01:36:30;;;;;;;0.40;0.30;;;;;;;20.02;100.00;95189.28;5073367;28;20975;-64
2023/06/15 01:38:59;;;;;;;0.43;0.33;;;;;;;20.05;100.00;95185.94;5072957;28;20561;-63
2023/06/15 01:41:28;;;;;;;0.40;0.30;;;;;;;19.73;100.00;95192.09;5072979;28;20873;-64
2023/06/15 01:43:59;;;;;;;0.40;0.30;;;;;;;19.65;100.00;95168.75;5073057;28;20778;-63
2023/06/15 01:46:29;;;;;;;0.57;0.57;;;;;;;19.85;100.00;95189.47;5072782;28;20960;-63
2023/06/15 01:48:58;;;;;;;0.40;0.27;;;;;;;19.69;100.00;95183.09;5073011;28;20445;-63
2023/06/15 01:51:28;;;;;;;0.50;0.40;;;;;;;19.52;100.00;95194.81;5072736;28;20969;-63
2023/06/15 01:53:56;;;;;;;0.50;0.40;;;;;;;19.19;100.00;95174.28;5059032;28;20513;-63
2023/06/15 01:56:25;;;;;;;2.50;1.23;;;;;;;19.15;100.00;95201.00;5070951;28;20520;-64
2023/06/15 01:58:53;;;;;;;0.77;0.77;;;;;;;19.36;100.00;95195.66;5072769;28;20470;-64
2023/06/15 02:01:23;;;;;;;0.50;0.40;;;;;;;19.47;100.00;95188.81;5072287;28;20438;-66
2023/06/15 02:03:54;;;;;;;0.47;0.33;;;;;;;19.19;100.00;95182.34;5047031;28;20528;-64
2023/06/15 02:06:23;;;;;;;0.50;0.40;;;;;;;19.05;100.00;95190.66;5072452;28;20444;-65
2023/06/15 02:08:51;;;;;;;0.40;0.20;;;;;;;19.31;100.00;95187.78;5072087;28;20946;-65
2023/06/15 02:11:19;;;;;;;0.67;0.60;;;;;;;19.32;100.00;95190.19;5072608;28;20495;-65
2023/06/15 02:13:48;;;;;;;0.40;0.30;;;;;;;19.13;100.00;95173.69;5071978;28;20445;-65
2023/06/15 02:16:16;;;;;;;0.63;0.60;;;;;;;19.13;100.00;95192.50;5071968;28;20941;-65
2023/06/15 02:18:47;;;;;;;0.47;0.27;;;;;;;19.06;100.00;95186.84;5072277;28;20538;-65
2023/06/15 02:21:16;;;;;;;0.50;0.30;;;;;;;18.95;100.00;95189.13;5071820;28;20855;-65
2023/06/15 02:23:45;;;;;;;0.70;0.60;;;;;;;18.74;100.00;95185.63;5072133;28;20490;-64
2023/06/15 02:26:13;;;;;;;0.53;0.53;;;;;;;18.56;100.00;95184.13;5071377;28;20438;-64
2023/06/15 02:28:42;;;;;;;0.50;0.50;;;;;;;18.62;100.00;95188.19;5080556;28;20667;-64
2023/06/15 02:31:10;;;;;;;0.50;0.50;;;;;;;18.61;100.00;95181.25;5082854;28;20494;-65
2023/06/15 02:33:38;;;;;;;0.40;0.30;;;;;;;18.70;100.00;95187.34;5072248;28;20453;-66
2023/06/15 02:36:09;;;;;;;0.93;0.60;;;;;;;18.84;100.00;95196.00;5071247;28;20499;-66
2023/06/15 02:38:37;;;;;;;0.40;0.40;;;;;;;19.31;100.00;95177.84;5071915;28;20906;-65
2023/06/15 02:41:06;;;;;;;0.40;0.30;;;;;;;18.94;100.00;95190.25;5071375;28;20445;-65
2023/06/15 02:43:34;;;;;;;0.50;0.30;;;;;;;18.80;100.00;95184.31;5071225;28;20433;-65
2023/06/15 02:46:02;;;;;;;1.13;1.00;;;;;;;18.60;100.00;95193.09;5071468;28;20446;-64
2023/06/15 02:48:30;;;;;;;0.93;0.30;;;;;;;18.29;100.00;95192.56;5071421;28;20528;-65
2023/06/15 02:50:59;;;;;;;0.67;0.67;;;;;;;18.23;100.00;95193.81;5071625;28;20445;-66
2023/06/15 02:53:29;;;;;;;0.47;0.30;;;;;;;18.73;100.00;95200.16;5071475;28;20456;-65
2023/06/15 02:55:58;;;;;;;0.40;0.30;;;;;;;19.16;100.00;95193.75;5072084;28;20499;-65
2023/06/15 02:58:26;;;;;;;1.03;1.03;;;;;;;18.82;100.00;95192.81;5071134;28;20472;-65
2023/06/15 03:00:55;;;;;;;0.57;0.43;;;;;;;18.61;100.00;95192.00;5071497;28;20966;-65
2023/06/15 03:03:27;;;;;;;0.93;0.93;;;;;;;18.49;100.00;95197.25;5070834;28;20428;-65
2023/06/15 03:05:56;;;;;;;0.53;0.50;;;;;;;18.64;100.00;95195.94;5071442;28;20441;-66
2023/06/15 03:08:25;;;;;;;0.40;0.30;;;;;;;18.64;100.00;95190.56;5071396;28;20537;-65
2023/06/15 03:10:55;;;;;;;0.97;0.40;;;;;;;19.10;100.00;95195.81;5071331;28;20472;-66
2023/06/15 03:13:24;;;;;;;0.53;0.30;;;;;;;19.08;100.00;95194.59;5071109;28;20437;-66
2023/06/15 03:15:52;;;;;;;0.60;0.50;;;;;;;19.41;100.00;95196.28;5070854;28;20524;-66
2023/06/15 03:18:21;;;;;;;0.60;0.60;;;;;;;19.38;100.00;95204.25;5071131;28;20550;-66
2023/06/15 03:20:52;;;;;;;0.60;0.33;;;;;;;19.27;100.00;95208.38;5071570;28;20938;-65
2023/06/15 03:23:21;;;;;;;0.50;0.50;;;;;;;19.29;100.00;95206.16;5071089;28;20441;-65
2023/06/15 03:25:51;;;;;;;0.50;0.40;;;;;;;19.51;100.00;95200.47;5071416;28;20522;-64
2023/06/15 03:28:23;;;;;;;0.40;0.30;;;;;;;19.38;100.00;95196.94;5071040;28;20491;-64
2023/06/15 03:30:52;;;;;;;1.13;1.03;;;;;;;19.25;100.00;95202.56;5070615;28;20483;-63
2023/06/15 03:33:22;;;;;;;0.50;0.37;;;;;;;19.11;100.00;95164.38;5070523;28;20441;-63
2023/06/15 03:35:53;;;;;;;0.70;0.50;;;;;;;18.92;100.00;95165.59;5070720;28;20836;-62
2023/06/15 03:38:21;;;;;;;1.10;0.50;;;;;;;19.46;100.00;95208.75;5071215;28;20475;-63
2023/06/15 03:40:50;;;;;;;0.60;0.40;;;;;;;19.46;100.00;95200.69;5070863;28;20441;-62
2023/06/15 03:43:18;;;;;;;0.70;0.40;;;;;;;19.37;100.00;95213.41;5071109;28;20520;-62
2023/06/15 03:45:48;;;;;;;0.60;0.60;;;;;;;19.62;100.00;95204.38;5070878;28;20430;-62
2023/06/15 03:48:16;;;;;;;0.70;0.40;;;;;;;19.55;100.00;95212.97;5070991;28;20452;-62
2023/06/15 03:50:45;;;;;;;0.80;0.80;;;;;;;19.68;100.00;95203.06;5069766;28;20441;-62
2023/06/15 03:53:13;;;;;;;0.40;0.30;;;;;;;19.69;100.00;95203.81;5073072;28;20445;-62
2023/06/15 03:55:42;;;;;;;0.50;0.50;;;;;;;19.46;100.00;95188.03;5074700;28;20433;-62
2023/06/15 03:58:10;;;;;;;0.53;0.50;;;;;;;19.48;100.00;95199.25;5074056;28;20476;-61
2023/06/15 04:00:40;;;;;;;1.33;0.50;;;;;;;19.37;100.00;95208.81;5074716;28;20441;-63
2023/06/15 04:03:10;;;;;;;0.60;0.50;;;;;;;19.43;100.00;95206.75;5074881;28;20492;-62
2023/06/15 04:05:39;;;;;;;0.67;0.60;;;;;;;19.17;100.00;95214.94;5074490;28;20973;-63
2023/06/15 04:08:08;;;;;;;0.53;0.53;;;;;;;19.18;100.00;95215.69;5074345;28;20503;-62
2023/06/15 04:10:37;;;;;;;1.00;0.60;;;;;;;19.33;100.00;95194.41;5074662;28;20527;-53
2023/06/15 04:13:06;;;;;;;0.57;0.57;;;;;;;19.65;100.00;95209.09;5074097;28;20833;-53
2023/06/15 04:15:34;;;;;;;0.77;0.50;;;;;;;19.66;100.00;95205.28;5074715;28;20516;-53
2023/06/15 04:18:03;;;;;;;0.60;0.37;;;;;;;19.92;100.00;95213.13;5073840;28;20533;-54
2023/06/15 04:20:32;;;;;;;0.50;0.30;;;;;;;19.33;100.00;95212.44;5072928;28;20433;-53
2023/06/15 04:23:01;;;;;;;0.70;0.40;;;;;;;19.57;100.00;95218.00;5074138;28;20449;-54
2023/06/15 04:25:29;;;;;;;0.70;0.50;;;;;;;19.79;100.00;95216.88;5071881;28;20449;-54
2023/06/15 04:27:58;;;;;;;0.40;0.30;;;;;;;19.87;100.00;95210.63;5072193;28;20491;-53
2023/06/15 04:30:26;;;;;;;0.60;0.47;;;;;;;19.62;100.00;95204.38;5072181;28;20503;-53
2023/06/15 04:32:57;;;;;;;0.70;0.70;;;;;;;19.76;100.00;95215.63;5072163;28;20433;-53
2023/06/15 04:35:28;;;;;;;0.70;0.40;;;;;;;19.76;100.00;95215.63;5073870;28;20441;-54
2023/06/15 04:37:59;;;;;;;0.50;0.30;;;;;;;19.93;100.00;95210.13;5073040;28;20433;-53
2023/06/15 04:40:27;;;;;;;0.40;0.30;;;;;;;19.70;100.00;95208.88;5073496;28;20477;-53
2023/06/15 04:42:57;;;;;;;2.97;0.87;;;;;;;20.02;100.00;95208.13;5074075;28;20498;-53
2023/06/15 04:45:26;;;;;;;0.40;0.30;;;;;;;20.06;100.00;95214.41;5073551;28;20441;-53
2023/06/15 04:47:54;;;;;;;0.80;0.50;;;;;;;20.09;100.00;95176.06;5074221;28;20596;-53
2023/06/15 04:50:23;;;;;;;0.57;0.57;;;;;;;20.29;100.00;95216.78;5073521;28;20552;-53
2023/06/15 04:52:52;;;;;;;0.50;0.43;;;;;;;20.27;100.00;95214.41;5074137;28;20469;-54
2023/06/15 04:55:21;;;;;;;2.30;0.70;;;;;;;20.07;100.00;95220.56;5060087;28;20430;-54
2023/06/15 04:57:50;;;;;;;0.80;0.80;;;;;;;20.06;100.00;95227.84;5073656;28;20485;-54
2023/06/15 05:00:19;;;;;;;2.80;0.70;;;;;;;20.15;100.00;95222.41;5059664;28;20480;-53
2023/06/15 05:02:48;;;;;;;0.50;0.40;;;;;;;20.53;100.00;95211.44;5073106;28;20495;-53
2023/06/15 05:05:16;;;;;;;0.97;0.83;;;;;;;20.83;100.00;95207.41;5073568;28;20433;-54
2023/06/15 05:07:46;;;;;;;0.57;0.47;;;;;;;20.96;100.00;95218.97;5073740;28;20446;-53
2023/06/15 05:10:15;;;;;;;0.60;0.50;;;;;;;21.01;100.00;95227.63;5072781;28;20546;-54
2023/06/15 05:12:45;;;;;;;0.97;0.70;;;;;;;20.96;100.00;95209.00;5073639;28;20525;-54
2023/06/15 05:15:13;;;;;;;0.73;0.30;;;;;;;21.14;100.00;95225.75;5067090;28;20903;-54
2023/06/15 05:17:42;;;;;;;0.40;0.30;;;;;;;21.00;100.00;95222.59;5066694;28;20441;-54
2023/06/15 05:20:11;;;;;;;0.50;0.40;;;;;;;21.17;100.00;95220.47;5040672;28;20478;-54
2023/06/15 05:22:40;;;;;;;0.50;0.50;;;;;;;21.18;100.00;95224.72;5068051;28;20448;-54
2023/06/15 05:25:09;;;;;;;1.33;0.80;;;;;;;19.80;100.00;95146.63;5073207;28;20972;-54
2023/06/15 05:27:37;;;;;;;0.93;0.80;;;;;;;20.02;100.00;95215.41;5073113;28;20503;-54
2023/06/15 05:30:08;;;;;;;0.93;0.93;;;;;;;20.18;100.00;95210.97;5073245;28;20437;-54
2023/06/15 05:32:38;;;;;;;0.60;0.33;;;;;;;20.44;100.00;95214.19;5073242;28;20804;-54
2023/06/15 05:35:08;;;;;;;0.60;0.40;;;;;;;20.71;100.00;95216.28;5073149;28;20438;-54
2023/06/15 05:37:37;;;;;;;1.30;1.00;;;;;;;20.92;100.00;95214.25;5072625;28;20437;-54
2023/06/15 05:40:07;;;;;;;0.50;0.40;;;;;;;20.70;100.00;95213.91;5072962;28;20473;-54
2023/06/15 05:42:36;;;;;;;1.33;0.60;;;;;;;20.83;100.00;95223.59;5072702;28;20494;-54
2023/06/15 05:45:05;;;;;;;0.93;0.83;;;;;;;20.31;100.00;95220.69;5072780;28;20472;-54
2023/06/15 05:47:35;;;;;;;0.70;0.70;;;;;;;20.44;100.00;95214.19;5073034;28;20437;-54
2023/06/15 05:50:04;;;;;;;0.50;0.40;;;;;;;20.58;100.00;95208.50;5072379;28;20511;-53
2023/06/15 05:52:32;;;;;;;0.70;0.60;;;;;;;20.87;100.00;95213.72;5072701;28;20495;-53
2023/06/15 05:55:00;;;;;;;0.60;0.40;;;;;;;20.85;100.00;95221.34;5072277;28;20469;-53
2023/06/15 05:57:30;;;;;;;0.60;0.50;;;;;;;20.83;100.00;95227.06;5072449;28;20430;-53
2023/06/15 05:59:59;;;;;;;0.50;0.33;;;;;;;21.27;100.00;95211.16;5072090;28;20473;-53
2023/06/15 06:02:27;;;;;;;0.80;0.80;;;;;;;21.46;100.00;95222.91;5072534;28;20449;-53
2023/06/15 06:04:57;;;;;;;0.50;0.30;;;;;;;21.52;100.00;95216.16;5071929;28;20524;-53
2023/06/15 06:07:25;;;;;;;0.57;0.40;;;;;;;21.38;100.00;95221.13;5072283;28;20441;-53
2023/06/15 06:09:53;;;;;;;0.90;0.80;;;;;;;21.83;100.00;95212.78;5071408;28;20542;-53
2023/06/15 06:12:22;;;;;;;0.80;0.70;;;;;;;21.84;100.00;95211.69;5072579;28;20894;-53
2023/06/15 06:14:50;;;;;;;1.03;0.83;;;;;;;21.98;100.00;95197.84;5071166;28;20438;-53
2023/06/15 06:17:18;;;;;;;1.33;0.57;;;;;;;22.63;100.00;95205.38;5072366;28;20448;-53
2023/06/15 06:20:10;;;;;;;1.03;0.83;;;;;;;22.73;100.00;95204.88;5072266;28;20883;-52
2023/06/15 06:22:38;;;;;;;0.77;0.70;;;;;;;22.80;100.00;95203.44;5071714;28;20930;-52
2023/06/15 06:25:07;;;;;;;0.70;0.37;;;;;;;23.29;100.00;95199.22;5071726;28;20971;-52
2023/06/15 06:27:36;;;;;;;1.17;1.10;;;;;;;22.73;100.00;95202.16;5071881;28;20453;-52
2023/06/15 06:30:05;;;;;;;3.23;0.60;;;;;;;23.03;100.00;95202.50;5072348;28;20932;-52
2023/06/15 06:32:33;;;;;;;0.70;0.70;;;;;;;22.62;100.00;95206.50;5072200;28;20448;-52
2023/06/15 06:35:01;;;;;;;1.60;1.40;;;;;;;22.51;100.00;95210.06;5071572;28;20793;-51
2023/06/15 06:37:31;;;;;;;2.30;0.80;;;;;;;23.18;100.00;95206.31;5071557;28;20487;-51
2023/06/15 06:40:01;;;;;;;0.50;0.40;;;;;;;23.05;100.00;95202.91;5072110;28;20882;-51
2023/06/15 06:42:29;;;;;;;0.77;0.70;;;;;;;23.04;100.00;95204.06;5071506;28;20491;-51
2023/06/15 06:44:57;;;;;;;0.50;0.50;;;;;;;23.14;100.00;95203.53;5071603;28;20484;-51
2023/06/15 06:47:26;;;;;;;0.93;0.93;;;;;;;23.08;100.00;95199.53;5071632;28;20446;-51
2023/06/15 06:49:54;;;;;;;0.63;0.63;;;;;;;23.38;100.00;95206.03;5071723;28;20442;-51
2023/06/15 06:52:22;;;;;;;0.73;0.67;;;;;;;23.43;100.00;95207.69;5071673;28;20445;-51
2023/06/15 06:54:52;;;;;;;1.73;0.80;;;;;;;23.27;100.00;95209.63;5071463;28;20945;-57
2023/06/15 06:57:20;;;;;;;0.80;0.70;;;;;;;23.54;100.00;95213.31;5071461;28;20523;-57
2023/06/15 06:59:50;;;;;;;0.40;0.30;;;;;;;23.88;99.67;95209.81;5071478;28;20522;-57
2023/06/15 07:02:18;;;;;;;0.60;0.40;;;;;;;23.53;100.00;95214.47;5070392;28;20441;-57
2023/06/15 07:04:46;;;;;;;2.30;2.20;;;;;;;23.41;100.00;95218.06;5071652;28;20467;-57
2023/06/15 07:07:15;;;;;;;0.60;0.60;;;;;;;23.13;100.00;95211.97;5071604;28;20433;-57
2023/06/15 07:09:43;;;;;;;0.40;0.30;;;;;;;23.32;100.00;95212.06;5071137;28;20487;-57
2023/06/15 07:12:13;;;;;;;0.53;0.53;;;;;;;22.83;100.00;95216.28;5071275;28;20445;-57
2023/06/15 07:14:41;;;;;;;0.77;0.77;;;;;;;23.00;100.00;95213.22;5071493;28;20437;-57
2023/06/15 07:17:12;;;;;;;0.40;0.37;;;;;;;22.91;100.00;95215.31;5071673;28;20441;-57
2023/06/15 07:19:41;;;;;;;0.60;0.40;;;;;;;23.32;100.00;95212.06;5070915;28;20433;-57
2023/06/15 07:22:09;;;;;;;0.50;0.50;;;;;;;23.08;100.00;95217.66;5071355;28;20445;-57
2023/06/15 07:24:38;;;;;;;0.60;0.40;;;;;;;23.06;100.00;95223.44;5071051;28;20938;-56
2023/06/15 07:27:06;;;;;;;0.40;0.30;;;;;;;23.06;100.00;95226.13;5073999;28;20468;-56
2023/06/15 07:29:36;;;;;;;0.70;0.40;;;;;;;22.82;100.00;95222.84;5075444;28;20438;-56
2023/06/15 07:32:05;;;;;;;0.80;0.80;;;;;;;22.92;100.00;95222.31;5075603;28;20441;-55
2023/06/15 07:34:34;;;;;;;0.40;0.30;;;;;;;22.98;100.00;95221.69;5074996;28;20438;-55
2023/06/15 07:37:02;;;;;;;0.77;0.77;;;;;;;22.56;100.00;95224.09;5075218;28;20674;-55
2023/06/15 07:39:31;;;;;;;1.07;0.73;;;;;;;22.08;100.00;95227.81;5075270;28;20437;-55
2023/06/15 07:42:00;;;;;;;1.40;1.07;;;;;;;21.97;100.00;95225.94;5074936;28;20500;-55
2023/06/15 07:44:29;;;;;;;0.90;0.83;;;;;;;22.24;100.00;95232.47;5075643;28;20817;-55
2023/06/15 07:46:58;;;;;;;0.93;0.70;;;;;;;21.81;100.00;95223.16;5075173;28;20449;-55
2023/06/15 07:49:27;;;;;;;1.50;0.80;;;;;;;21.82;100.00;95238.22;5075485;28;20467;-55
2023/06/15 07:52:12;;;;;;;0.40;0.40;;;;;;;22.35;100.00;95234.31;5075266;28;20445;-55
2023/06/15 07:54:41;;;;;;;0.40;0.30;;;;;;;22.32;100.00;95226.91;5075052;28;20529;-55
2023/06/15 07:57:10;;;;;;;0.53;0.53;;;;;;;21.97;100.00;95234.81;5075005;28;20437;-55
2023/06/15 07:59:38;;;;;;;0.50;0.33;;;;;;;22.44;100.00;95237.66;5074585;28;20449;-54
2023/06/15 08:02:08;;;;;;;0.40;0.30;;;;;;;22.73;100.00;95240.00;5074306;28;20538;-54
2023/06/15 08:04:37;;;;;;;0.50;0.50;;;;;;;22.68;100.00;95236.75;5074852;28;20444;-54
2023/06/15 08:07:07;;;;;;;0.43;0.40;;;;;;;22.32;100.00;95243.13;5074779;28;20445;-54
2023/06/15 08:09:35;;;;;;;0.77;0.70;;;;;;;22.50;100.00;95238.97;5074368;28;21048;-54
2023/06/15 08:12:04;;;;;;;0.47;0.43;;;;;;;22.52;100.00;95244.00;5074588;28;20961;-56
2023/06/15 08:14:32;;;;;;;0.60;0.50;;;;;;;22.56;100.00;95234.91;5074789;28;20469;-56
2023/06/15 08:17:01;;;;;;;0.50;0.50;;;;;;;22.68;100.00;95248.34;5074706;28;20453;-56
2023/06/15 08:19:31;;;;;;;1.33;0.40;;;;;;;22.23;100.00;95191.19;5074613;28;20913;-56
2023/06/15 08:21:59;;;;;;;0.67;0.67;;;;;;;22.42;100.00;95248.00;5074370;28;20477;-56
2023/06/15 08:24:27;;;;;;;1.43;1.33;;;;;;;22.26;100.00;95257.22;5074301;28;20437;-56
2023/06/15 08:26:56;;;;;;;2.50;0.60;;;;;;;22.32;100.00;95253.13;5074517;28;20442;-55
2023/06/15 08:29:25;;;;;;;0.40;0.40;;;;;;;22.11;100.00;95248.72;5074022;28;20437;-56
2023/06/15 08:31:53;;;;;;;0.70;0.70;;;;;;;21.99;100.00;95250.66;5074803;28;20480;-57
2023/06/15 08:34:21;;;;;;;0.67;0.67;;;;;;;21.88;100.00;95249.59;5073896;28;20443;-56
2023/06/15 08:36:51;;;;;;;0.70;0.40;;;;;;;22.08;100.00;95256.72;5074344;28;20476;-55
2023/06/15 08:39:19;;;;;;;3.27;0.97;;;;;;;22.37;100.00;95244.78;5040585;28;20476;-57
2023/06/15 08:41:48;;;;;;;0.97;0.80;;;;;;;22.25;100.00;95251.03;5068034;28;20530;-57
2023/06/15 08:44:19;;;;;;;0.53;0.53;;;;;;;22.31;100.00;95238.84;5074040;28;21006;-57
2023/06/15 08:46:48;;;;;;;0.70;0.53;;;;;;;22.62;100.00;95246.25;5073958;28;20815;-57
2023/06/15 08:49:16;;;;;;;0.50;0.50;;;;;;;22.66;100.00;95242.53;5072985;28;20465;-58
2023/06/15 08:51:46;;;;;;;0.70;0.60;;;;;;;22.49;100.00;95250.13;5073991;28;20441;-58
2023/06/15 08:54:18;;;;;;;0.93;0.93;;;;;;;22.83;100.00;95254.09;5074257;28;20867;-58
2023/06/15 08:56:47;;;;;;;0.60;0.60;;;;;;;22.86;100.00;95248.00;5074159;28;20502;-59
2023/06/15 08:59:15;;;;;;;0.90;0.80;;;;;;;22.62;100.00;95244.31;5074293;28;20503;-59
2023/06/15 09:01:44;;;;;;;0.90;0.63;;;;;;;22.66;100.00;95247.94;5073567;28;20469;-59
2023/06/15 09:07:00;;;;;;;0.60;0.40;;;;;;;23.14;100.00;95246.81;5073537;28;20438;-60
2023/06/15 09:09:30;;;;;;;0.50;0.30;;;;;;;22.89;100.00;95248.13;5073261;28;20465;-60
2023/06/15 09:11:58;;;;;;;0.50;0.50;;;;;;;22.79;100.00;95245.94;5047839;28;20954;-60
2023/06/15 09:14:26;;;;;;;0.50;0.50;;;;;;;23.18;100.00;95241.47;5072923;28;20445;-60
2023/06/15 09:16:55;;;;;;;0.70;0.60;;;;;;;22.95;100.00;95233.19;5073789;28;20438;-59
2023/06/15 09:19:23;;;;;;;0.57;0.40;;;;;;;23.31;100.00;95240.22;5073394;28;20434;-59
2023/06/15 09:21:55;;;;;;;0.50;0.50;;;;;;;23.42;100.00;95229.69;5073585;28;20811;-59
2023/06/15 09:24:24;;;;;;;1.80;0.50;;;;;;;23.29;100.00;95232.47;5073178;28;22013;-59
2023/06/15 09:26:54;;;;;;;0.60;0.40;;;;;;;23.32;100.00;95228.28;5073531;28;20464;-59
2023/06/15 09:29:22;;;;;;;0.50;0.40;;;;;;;23.09;100.00;95238.16;5073231;28;20464;-59
2023/06/15 09:31:51;;;;;;;0.80;0.80;;;;;;;23.41;100.00;95233.50;5073463;28;20503;-56
2023/06/15 09:34:19;;;;;;;1.13;0.73;;;;;;;23.52;100.00;95226.44;5072962;28;20426;-56
2023/06/15 09:36:48;;;;;;;0.87;0.87;;;;;;;23.81;100.00;95213.16;5073155;28;20801;-56
2023/06/15 09:39:22;;;;;;;0.90;0.90;;;;;;;24.20;100.00;95218.59;5072631;28;20446;-57
2023/06/15 09:41:56;;;;;;;0.80;0.57;;;;;;;24.05;100.00;95209.38;5072911;28;21142;-57
2023/06/15 09:44:25;;;;;;;1.07;1.00;;;;;;;24.88;100.00;95208.63;5072930;28;20451;-56
2023/06/15 09:46:58;;;;;;;0.97;0.87;;;;;;;25.10;100.00;95198.91;5072699;28;20949;-56
2023/06/15 09:49:28;;;;;;;0.80;0.57;;;;;;;25.46;96.12;95203.75;5071813;28;20472;-56
2023/06/15 09:51:57;;;;;;;0.70;0.70;;;;;;;25.81;97.77;95203.44;5072767;28;20503;-56
2023/06/15 09:54:28;;;;;;;2.03;1.30;;;;;;;25.09;95.27;95200.06;5072786;28;20937;-55
2023/06/15 09:56:59;;;;;;;0.73;0.70;;;;;;;25.53;95.12;95195.69;5072714;28;20445;-55
2023/06/15 09:59:27;;;;;;;0.40;0.40;;;;;;;25.75;89.04;95199.50;5072486;28;20442;-56
2023/06/15 10:01:57;;;;;;;0.90;0.90;;;;;;;25.97;89.37;95185.03;5072808;28;21075;-55
2023/06/15 10:04:29;;;;;;;0.40;0.30;;;;;;;25.42;88.13;95183.09;5072793;28;20508;-56
2023/06/15 10:07:02;;;;;;;0.80;0.50;;;;;;;25.42;86.70;95194.75;5072272;28;20509;-56
2023/06/15 10:09:36;;;;;;;1.30;0.90;;;;;;;25.65;86.33;95190.03;5072441;28;20514;-56
2023/06/15 10:12:12;;;;;;;0.50;0.30;;;;;;;25.93;87.32;95192.34;5064356;28;20442;-56
2023/06/15 10:14:49;;;;;;;0.67;0.57;;;;;;;26.00;85.73;95183.50;5068671;28;20429;-56
2023/06/15 10:17:23;;;;;;;1.07;0.50;;;;;;;26.12;83.63;95175.91;5071313;28;20863;-56
2023/06/15 10:19:54;;;;;;;0.67;0.67;;;;;;;26.59;81.05;95177.94;5071476;28;20434;-56
2023/06/15 10:22:26;;;;;;;0.67;0.67;;;;;;;26.67;79.49;95163.25;5070187;28;20481;-55
2023/06/15 10:24:55;;;;;;;1.17;1.10;;;;;;;26.15;84.69;95148.00;5069723;28;20445;-55
2023/06/15 10:27:26;;;;;;;0.60;0.50;;;;;;;26.75;80.37;95142.34;5069200;28;20452;-54
2023/06/15 10:30:07;;;;;;;0.67;0.67;;;;;;;26.85;79.70;95166.94;5069981;28;21013;-54
2023/06/15 10:32:43;;;;;;;0.80;0.80;;;;;;;28.19;74.99;95153.34;5069639;28;20445;-54
2023/06/15 10:35:20;;;;;;;0.40;0.30;;;;;;;27.97;74.49;95146.25;5070661;28;20812;-55
2023/06/15 10:37:57;;;;;;;0.47;0.40;;;;;;;27.62;72.71;95155.84;5045548;28;20437;-55
2023/06/15 10:40:30;;;;;;;0.50;0.50;;;;;;;27.24;75.52;95150.13;5071903;28;20441;-56
2023/06/15 10:43:01;;;;;;;0.60;0.40;;;;;;;26.39;77.09;95155.63;5072256;28;20512;-56
2023/06/15 10:45:31;;;;;;;0.57;0.53;;;;;;;26.46;78.84;95158.41;5071614;28;20441;-55
2023/06/15 10:48:02;;;;;;;0.60;0.60;;;;;;;26.10;78.58;95142.09;5071798;28;20851;-56
2023/06/15 10:50:40;;;;;;;0.50;0.47;;;;;;;25.09;81.22;95145.81;5071781;28;20438;-56
2023/06/15 10:53:22;;;;;;;0.60;0.60;;;;;;;25.07;83.03;95139.97;5071839;28;20945;-57
2023/06/15 10:55:55;;;;;;;0.70;0.70;;;;;;;25.09;86.59;95137.69;5047411;28;20475;-57
2023/06/15 10:58:26;;;;;;;0.60;0.60;;;;;;;24.92;85.95;95133.53;5071653;28;20437;-56
2023/06/15 11:01:10;;;;;;;0.60;0.50;;;;;;;24.77;86.87;95133.69;5071038;28;20473;-55
2023/06/15 11:03:42;;;;;;;1.13;1.13;;;;;;;24.75;91.85;95116.97;5071378;28;20509;-56
2023/06/15 11:06:16;;;;;;;0.50;0.50;;;;;;;24.94;88.41;95122.34;5071432;28;20940;-55
2023/06/15 11:08:48;;;;;;;1.47;1.37;;;;;;;24.45;86.68;95122.31;5058562;28;20960;-55
2023/06/15 11:11:20;;;;;;;0.67;0.67;;;;;;;24.73;92.70;95120.06;5071753;28;20506;-55
2023/06/15 11:14:03;;;;;;;1.63;1.23;;;;;;;24.55;92.14;95111.66;5071616;28;20450;-55
2023/06/15 11:16:34;;;;;;;1.00;0.87;;;;;;;24.23;90.03;95069.72;5071398;28;20429;-54
2023/06/15 11:19:27;;;;;;;1.57;1.47;;;;;;;24.60;92.52;95116.75;5071663;28;20445;-54
2023/06/15 11:22:01;;;;;;;0.40;0.40;;;;;;;24.15;96.48;95111.34;5071478;28;20433;-54
2023/06/15 11:24:36;;;;;;;8.83;0.63;;;;;;;24.10;98.90;95113.56;5071000;28;20948;-54
2023/06/15 11:27:08;;;;;;;0.40;0.37;;;;;;;24.10;98.25;95118.97;5071429;28;20433;-54
2023/06/15 11:29:40;;;;;;;0.50;0.50;;;;;;;23.84;100.00;95112.28;5071109;28;20437;-54
2023/06/15 11:32:11;;;;;;;0.50;0.50;;;;;;;23.92;100.00;95110.50;5071381;28;20533;-54
2023/06/15 11:34:40;;;;;;;0.60;0.40;;;;;;;24.11;100.00;95104.31;5071192;28;20434;-54
2023/06/15 11:37:12;;;;;;;0.50;0.30;;;;;;;24.40;100.00;95111.78;5071115;28;20449;-54
2023/06/15 11:39:44;;;;;;;0.60;0.60;;;;;;;24.14;100.00;95111.69;5071204;28;20516;-53
2023/06/15 11:42:13;;;;;;;1.83;0.60;;;;;;;23.91;100.00;95106.22;5070959;28;20830;-53